createdAt,value
2023-05-14T00:00:16.566Z,8.50
2023-05-14T00:03:04.290Z,8.20
2023-05-14T00:05:32.204Z,7.70
2023-05-14T00:07:59.812Z,9.50
2023-05-14T00:10:28.001Z,8.50
2023-05-14T00:12:55.880Z,10.00
2023-05-14T00:15:23.781Z,8.70
2023-05-14T00:17:51.429Z,9.50
2023-05-14T00:20:19.071Z,9.00
2023-05-14T00:22:47.017Z,9.80
2023-05-14T00:25:15.029Z,9.30
2023-05-14T00:27:43.152Z,9.00
2023-05-14T00:30:12.209Z,8.80
2023-05-14T00:32:40.019Z,9.00
2023-05-14T00:35:08.381Z,9.80
2023-05-14T00:37:36.370Z,9.40
2023-05-14T00:40:06.760Z,9.90
2023-05-14T00:42:34.884Z,10.10
2023-05-14T00:45:02.558Z,10.00
2023-05-14T00:47:30.210Z,10.00
2023-05-14T00:49:57.806Z,11.00
2023-05-14T00:52:25.951Z,9.80
2023-05-14T00:54:54.234Z,9.20
2023-05-14T00:57:22.035Z,10.30
2023-05-14T00:59:49.764Z,10.40
2023-05-14T01:02:17.442Z,11.20
2023-05-14T01:04:45.166Z,11.00
2023-05-14T01:07:35.593Z,10.60
2023-05-14T01:10:09.651Z,10.40
2023-05-14T01:12:53.431Z,10.40
2023-05-14T01:15:24.145Z,11.00
2023-05-14T01:17:55.757Z,10.20
2023-05-14T01:20:23.732Z,10.70
2023-05-14T01:22:51.601Z,10.60
2023-05-14T01:25:19.259Z,11.00
2023-05-14T01:28:06.968Z,11.20
2023-05-14T01:30:43.188Z,11.10
2023-05-14T01:33:13.791Z,11.10
2023-05-14T01:35:43.235Z,12.00
2023-05-14T01:38:12.766Z,10.90
2023-05-14T01:40:41.672Z,10.60
2023-05-14T01:43:09.640Z,11.70
2023-05-14T01:45:37.751Z,12.00
2023-05-14T01:48:06.768Z,11.90
2023-05-14T01:50:34.857Z,10.80
2023-05-14T01:53:02.460Z,11.70
2023-05-14T01:55:30.018Z,11.00
2023-05-14T01:57:57.623Z,10.50
2023-05-14T02:00:28.281Z,11.60
2023-05-14T02:02:56.032Z,10.70
2023-05-14T02:05:24.422Z,10.40
2023-05-14T02:07:53.757Z,11.00
2023-05-14T02:10:21.776Z,11.00
2023-05-14T02:12:50.515Z,10.40
2023-05-14T02:15:18.344Z,11.40
2023-05-14T02:17:46.034Z,10.40
2023-05-14T02:20:14.162Z,10.60
2023-05-14T02:22:46.176Z,11.00
2023-05-14T02:25:13.783Z,10.20
2023-05-14T02:27:41.461Z,11.00
2023-05-14T02:30:10.437Z,10.70
2023-05-14T02:32:39.723Z,10.50
2023-05-14T02:35:08.171Z,10.90
2023-05-14T02:37:35.802Z,10.80
2023-05-14T02:40:04.465Z,10.70
2023-05-14T02:42:32.194Z,10.80
2023-05-14T02:44:59.901Z,11.10
2023-05-14T02:47:27.686Z,10.20
2023-05-14T02:49:55.545Z,9.70
2023-05-14T02:52:23.173Z,10.10
2023-05-14T02:54:50.796Z,9.30
2023-05-14T02:57:18.386Z,9.50
2023-05-14T02:59:45.976Z,10.30
2023-05-14T03:02:14.204Z,10.10
2023-05-14T03:04:42.693Z,9.80
2023-05-14T03:07:10.542Z,9.80
2023-05-14T03:09:38.513Z,9.40
2023-05-14T03:12:07.328Z,9.50
2023-05-14T03:14:34.957Z,9.50
2023-05-14T03:17:03.949Z,9.00
2023-05-14T03:19:31.795Z,9.60
2023-05-14T03:21:59.410Z,9.90
2023-05-14T03:24:26.979Z,10.50
2023-05-14T03:26:54.586Z,10.30
2023-05-14T03:29:22.171Z,10.60
2023-05-14T03:31:50.577Z,9.80
2023-05-14T03:34:18.190Z,10.10
2023-05-14T03:36:45.849Z,11.60
2023-05-14T03:39:15.563Z,11.40
2023-05-14T03:41:43.204Z,11.30
2023-05-14T03:44:10.823Z,11.50
2023-05-14T03:46:38.415Z,10.90
2023-05-14T03:49:07.134Z,11.70
2023-05-14T03:51:35.542Z,12.10
2023-05-14T03:54:05.921Z,11.30
2023-05-14T03:56:33.788Z,9.80
2023-05-14T03:59:01.401Z,9.70
2023-05-14T04:01:29.024Z,10.70
2023-05-14T04:03:58.957Z,9.40
2023-05-14T04:06:26.983Z,9.70
2023-05-14T04:08:55.791Z,10.50
2023-05-14T04:11:23.390Z,10.40
2023-05-14T04:13:51.236Z,10.30
2023-05-14T04:16:18.883Z,10.60
2023-05-14T04:18:46.782Z,10.10
2023-05-14T04:21:15.919Z,10.00
2023-05-14T04:23:43.493Z,10.20
2023-05-14T04:26:11.322Z,10.40
2023-05-14T04:28:38.920Z,10.40
2023-05-14T04:31:06.597Z,9.30
2023-05-14T04:33:34.204Z,9.00
2023-05-14T04:36:02.093Z,9.20
2023-05-14T04:38:30.046Z,8.20
2023-05-14T04:40:58.363Z,8.80
2023-05-14T04:43:25.951Z,8.60
2023-05-14T04:45:53.606Z,9.00
2023-05-14T04:48:21.739Z,7.60
2023-05-14T04:50:49.312Z,8.10
2023-05-14T04:53:16.896Z,9.20
2023-05-14T04:55:44.487Z,8.00
2023-05-14T04:58:12.360Z,8.10
2023-05-14T05:00:40.879Z,8.20
2023-05-14T05:03:08.836Z,8.80
2023-05-14T05:05:36.845Z,9.20
2023-05-14T05:08:04.568Z,8.70
2023-05-14T05:10:32.232Z,8.50
2023-05-14T05:13:00.303Z,8.40
2023-05-14T05:15:27.926Z,8.40
2023-05-14T05:17:55.548Z,8.40
2023-05-14T05:20:25.084Z,8.60
2023-05-14T05:22:52.855Z,8.90
2023-05-14T05:25:20.620Z,8.20
2023-05-14T05:27:48.198Z,8.00
2023-05-14T05:30:16.170Z,7.70
2023-05-14T05:32:43.991Z,8.20
2023-05-14T05:35:11.604Z,8.80
2023-05-14T05:37:39.167Z,7.50
2023-05-14T05:40:07.712Z,6.80
2023-05-14T05:42:35.511Z,6.80
2023-05-14T05:45:03.304Z,6.80
2023-05-14T05:47:30.894Z,6.70
2023-05-14T05:49:59.587Z,5.70
2023-05-14T05:52:27.301Z,6.40
2023-05-14T05:54:54.931Z,5.90
2023-05-14T05:57:25.633Z,6.10
2023-05-14T05:59:53.934Z,5.40
2023-05-14T06:02:21.672Z,5.30
2023-05-14T06:04:49.579Z,6.10
2023-05-14T06:07:17.197Z,7.00
2023-05-14T06:09:45.025Z,6.20
2023-05-14T06:12:12.610Z,6.40
2023-05-14T06:14:40.236Z,5.00
2023-05-14T06:17:08.326Z,5.40
2023-05-14T06:19:35.910Z,6.70
2023-05-14T06:22:04.112Z,5.30
2023-05-14T06:24:31.716Z,5.40
2023-05-14T06:26:59.339Z,6.10
2023-05-14T06:29:26.939Z,6.00
2023-05-14T06:31:54.562Z,6.20
2023-05-14T06:34:22.200Z,6.60
2023-05-14T06:36:49.780Z,6.80
2023-05-14T06:39:17.353Z,6.90
2023-05-14T06:41:44.959Z,8.10
2023-05-14T06:44:16.542Z,7.80
2023-05-14T06:46:44.128Z,8.70
2023-05-14T06:49:11.754Z,9.70
2023-05-14T06:51:40.813Z,8.80
2023-05-14T06:54:08.784Z,9.70
2023-05-14T06:56:36.358Z,9.50
2023-05-14T06:59:03.975Z,10.40
2023-05-14T07:01:31.649Z,10.70
2023-05-14T07:03:59.476Z,10.60
2023-05-14T07:06:27.247Z,9.90
2023-05-14T07:08:55.190Z,9.40
2023-05-14T07:11:23.038Z,8.80
2023-05-14T07:13:50.663Z,9.70
2023-05-14T07:16:18.361Z,8.20
2023-05-14T07:18:45.934Z,8.30
2023-05-14T07:21:13.560Z,9.30
2023-05-14T07:23:41.235Z,8.80
2023-05-14T07:26:08.995Z,8.30
2023-05-14T07:28:36.746Z,7.80
2023-05-14T07:31:08.903Z,8.10
2023-05-14T07:33:36.920Z,7.50
2023-05-14T07:36:05.364Z,7.80
2023-05-14T07:38:32.972Z,8.00
2023-05-14T07:41:00.804Z,8.00
2023-05-14T07:43:28.445Z,7.50
2023-05-14T07:45:56.567Z,7.10
2023-05-14T07:48:24.378Z,7.10
2023-05-14T07:50:52.306Z,9.50
2023-05-14T07:53:20.002Z,7.40
2023-05-14T07:55:49.091Z,8.90
2023-05-14T07:58:16.715Z,7.50
2023-05-14T08:00:44.440Z,9.50
2023-05-14T08:03:12.230Z,8.30
2023-05-14T08:05:40.208Z,6.50
2023-05-14T08:08:07.799Z,7.20
2023-05-14T08:10:35.769Z,6.60
2023-05-14T08:13:03.819Z,7.30
2023-05-14T08:15:31.455Z,8.30
2023-05-14T08:18:03.807Z,7.00
2023-05-14T08:20:31.450Z,6.70
2023-05-14T08:22:59.043Z,7.40
2023-05-14T08:25:26.687Z,6.80
2023-05-14T08:27:54.724Z,6.80
2023-05-14T08:30:23.069Z,13.50
2023-05-14T08:32:51.722Z,6.50
2023-05-14T08:35:19.884Z,7.80
2023-05-14T08:37:47.552Z,6.10
2023-05-14T08:40:16.551Z,6.20
2023-05-14T08:42:45.256Z,6.70
2023-05-14T08:45:20.996Z,7.00
2023-05-14T08:47:52.920Z,6.50
2023-05-14T08:50:22.949Z,6.80
2023-05-14T08:52:51.821Z,7.00
2023-05-14T08:55:19.881Z,6.10
2023-05-14T08:57:47.747Z,6.30
2023-05-14T09:00:15.697Z,6.60
2023-05-14T09:02:44.752Z,6.50
2023-05-14T09:05:13.256Z,6.70
2023-05-14T09:07:41.276Z,5.10
2023-05-14T09:10:09.541Z,7.00
2023-05-14T09:12:37.352Z,4.50
2023-05-14T09:15:06.583Z,7.40
2023-05-14T09:17:34.814Z,4.60
2023-05-14T09:20:04.069Z,3.70
2023-05-14T09:22:34.573Z,5.90
2023-05-14T09:25:03.636Z,5.70
2023-05-14T09:27:32.798Z,5.20
2023-05-14T09:30:07.545Z,4.50
2023-05-14T09:32:36.392Z,5.40
2023-05-14T09:35:15.680Z,3.90
2023-05-14T09:37:48.116Z,4.30
2023-05-14T09:40:17.190Z,5.80
2023-05-14T09:42:45.386Z,3.70
2023-05-14T09:45:13.064Z,4.50
2023-05-14T09:47:41.245Z,6.00
2023-05-14T09:50:09.348Z,3.90
2023-05-14T09:52:37.879Z,4.50
2023-05-14T09:55:06.381Z,6.80
2023-05-14T09:57:34.616Z,6.00
2023-05-14T10:00:02.403Z,6.40
2023-05-14T10:02:37.877Z,4.00
2023-05-14T10:05:07.632Z,4.90
2023-05-14T10:07:48.236Z,3.60
2023-05-14T10:10:18.369Z,4.20
2023-05-14T10:12:54.073Z,6.70
2023-05-14T10:15:27.440Z,3.80
2023-05-14T10:18:00.895Z,6.70
2023-05-14T10:20:29.114Z,4.20
2023-05-14T10:22:58.250Z,4.10
2023-05-14T10:25:26.385Z,4.50
2023-05-14T10:27:54.669Z,3.80
2023-05-14T10:30:25.852Z,5.50
2023-05-14T10:33:12.312Z,8.50
2023-05-14T10:36:09.124Z,3.50
2023-05-14T10:38:38.093Z,3.30
2023-05-14T10:41:10.033Z,3.10
2023-05-14T10:43:39.362Z,3.80
2023-05-14T10:46:08.381Z,3.50
2023-05-14T10:48:37.451Z,3.50
2023-05-14T10:51:07.880Z,3.40
2023-05-14T10:53:35.814Z,3.80
2023-05-14T10:56:05.846Z,3.10
2023-05-14T10:58:38.176Z,2.50
2023-05-14T11:01:10.386Z,2.80
2023-05-14T11:03:43.325Z,2.90
2023-05-14T11:06:13.091Z,6.50
2023-05-14T11:08:41.516Z,2.20
2023-05-14T11:11:09.786Z,2.60
2023-05-14T11:13:37.451Z,4.20
2023-05-14T11:16:21.166Z,2.60
2023-05-14T11:19:02.100Z,3.60
2023-05-14T11:21:32.402Z,2.60
2023-05-14T11:24:01.114Z,1.90
2023-05-14T11:26:28.967Z,2.40
2023-05-14T11:28:56.670Z,2.60
2023-05-14T11:31:25.408Z,4.40
2023-05-14T11:33:53.640Z,3.20
2023-05-14T11:36:21.974Z,2.80
2023-05-14T11:38:51.621Z,4.60
2023-05-14T11:41:21.487Z,2.20
2023-05-14T11:43:49.468Z,2.40
2023-05-14T11:46:21.751Z,3.10
2023-05-14T11:48:49.555Z,2.30
2023-05-14T11:51:17.216Z,2.20
2023-05-14T11:53:45.586Z,4.10
2023-05-14T11:56:13.243Z,5.10
2023-05-14T11:58:40.920Z,2.20
2023-05-14T12:01:15.566Z,3.50
2023-05-14T12:03:44.311Z,2.90
2023-05-14T12:06:12.184Z,2.30
2023-05-14T12:08:40.127Z,2.50
2023-05-14T12:11:09.147Z,3.10
2023-05-14T12:13:37.142Z,2.70
2023-05-14T12:16:05.361Z,4.80
2023-05-14T12:18:33.726Z,3.80
2023-05-14T12:21:05.973Z,2.20
2023-05-14T12:23:33.961Z,2.30
2023-05-14T12:26:04.166Z,2.70
2023-05-14T12:28:33.469Z,2.70
2023-05-14T12:31:02.742Z,2.30
2023-05-14T12:33:30.403Z,2.60
2023-05-14T12:36:09.912Z,2.40
2023-05-14T12:38:43.843Z,2.60
2023-05-14T12:41:11.481Z,2.50
2023-05-14T12:43:42.723Z,3.70
2023-05-14T12:46:13.071Z,2.60
2023-05-14T12:48:40.792Z,2.70
2023-05-14T12:51:08.470Z,3.20
2023-05-14T12:53:36.154Z,2.40
2023-05-14T12:56:03.978Z,2.70
2023-05-14T12:58:31.865Z,2.80
2023-05-14T13:00:59.715Z,2.80
2023-05-14T13:03:27.836Z,3.10
2023-05-14T13:05:55.522Z,4.10
2023-05-14T13:08:26.568Z,2.60
2023-05-14T13:10:54.745Z,2.60
2023-05-14T13:13:23.342Z,3.40
2023-05-14T13:15:50.948Z,3.00
2023-05-14T13:18:18.574Z,3.10
2023-05-14T13:20:49.775Z,2.80
2023-05-14T13:23:17.442Z,2.90
2023-05-14T13:25:45.051Z,3.50
2023-05-14T13:28:14.511Z,2.60
2023-05-14T13:30:42.177Z,3.40
2023-05-14T13:33:09.845Z,3.50
2023-05-14T13:35:37.569Z,3.10
2023-05-14T13:38:05.310Z,2.80
2023-05-14T13:40:32.888Z,2.90
2023-05-14T13:43:00.606Z,3.00
2023-05-14T13:45:28.191Z,2.70
2023-05-14T13:47:56.635Z,3.20
2023-05-14T13:50:24.386Z,3.80
2023-05-14T13:52:52.187Z,3.40
2023-05-14T13:55:19.766Z,3.30
2023-05-14T13:57:47.337Z,2.70
2023-05-14T14:00:15.816Z,2.80
2023-05-14T14:02:43.461Z,2.90
2023-05-14T14:05:11.415Z,3.00
2023-05-14T14:07:40.545Z,2.90
2023-05-14T14:10:09.258Z,3.60
2023-05-14T14:12:37.198Z,2.90
2023-05-14T14:15:06.128Z,3.40
2023-05-14T14:17:34.966Z,4.30
2023-05-14T14:20:05.971Z,3.10
2023-05-14T14:22:34.056Z,3.60
2023-05-14T14:25:02.069Z,3.10
2023-05-14T14:27:32.134Z,3.40
2023-05-14T14:29:59.710Z,3.10
2023-05-14T14:32:27.376Z,3.00
2023-05-14T14:34:54.953Z,3.10
2023-05-14T14:37:23.141Z,4.60
2023-05-14T14:39:50.975Z,3.50
2023-05-14T14:42:18.564Z,3.50
2023-05-14T14:44:46.239Z,3.40
2023-05-14T14:47:13.808Z,3.60
2023-05-14T14:49:41.407Z,3.00
2023-05-14T14:52:09.032Z,3.60
2023-05-14T14:54:36.665Z,4.40
2023-05-14T14:57:04.548Z,3.90
2023-05-14T14:59:32.112Z,3.50
2023-05-14T15:01:59.732Z,3.50
2023-05-14T15:04:27.295Z,3.20
2023-05-14T15:06:54.861Z,3.30
2023-05-14T15:09:22.572Z,3.30
2023-05-14T15:11:50.416Z,4.30
2023-05-14T15:14:18.016Z,3.20
2023-05-14T15:16:45.674Z,3.80
2023-05-14T15:19:13.538Z,3.00
2023-05-14T15:21:41.573Z,2.70
2023-05-14T15:24:15.975Z,3.20
2023-05-14T15:26:43.620Z,3.60
2023-05-14T15:29:11.330Z,3.80
2023-05-14T15:31:38.977Z,3.20
2023-05-14T15:34:06.570Z,3.20
2023-05-14T15:36:34.136Z,3.90
2023-05-14T15:39:01.808Z,3.50
2023-05-14T15:41:29.660Z,3.30
2023-05-14T15:43:58.582Z,6.70
2023-05-14T15:46:26.878Z,3.50
2023-05-14T15:48:54.514Z,3.20
2023-05-14T15:51:22.103Z,3.60
2023-05-14T15:53:49.704Z,5.80
2023-05-14T15:56:17.278Z,3.70
2023-05-14T15:58:44.860Z,3.70
2023-05-14T16:01:12.566Z,3.50
2023-05-14T16:03:40.274Z,4.70
2023-05-14T16:06:08.065Z,3.40
2023-05-14T16:08:35.665Z,3.80
2023-05-14T16:11:03.326Z,3.40
2023-05-14T16:13:30.966Z,3.50
2023-05-14T16:15:59.510Z,4.10
2023-05-14T16:18:27.304Z,3.50
2023-05-14T16:20:55.798Z,3.60
2023-05-14T16:23:23.431Z,3.70
2023-05-14T16:25:51.050Z,3.20
2023-05-14T16:28:18.653Z,3.30
2023-05-14T16:30:46.225Z,3.60
2023-05-14T16:33:13.867Z,3.40
2023-05-14T16:35:41.507Z,3.00
2023-05-14T16:38:09.238Z,3.10
2023-05-14T16:40:36.996Z,3.40
2023-05-14T16:43:04.865Z,3.30
2023-05-14T16:45:34.716Z,3.90
2023-05-14T16:48:02.311Z,4.00
2023-05-14T16:50:30.022Z,4.00
2023-05-14T16:52:57.673Z,3.40
2023-05-14T16:55:26.017Z,3.70
2023-05-14T16:57:53.675Z,3.30
2023-05-14T17:00:21.397Z,4.00
2023-05-14T17:02:49.950Z,3.50
2023-05-14T17:05:17.619Z,3.60
2023-05-14T17:07:45.229Z,4.30
2023-05-14T17:10:12.908Z,3.50
2023-05-14T17:12:40.484Z,4.50
2023-05-14T17:15:07.787Z,3.80
2023-05-14T17:17:35.497Z,3.60
2023-05-14T17:20:05.530Z,3.90
2023-05-14T17:22:33.226Z,4.10
2023-05-14T17:25:00.858Z,6.20
2023-05-14T17:27:31.678Z,4.30
2023-05-14T17:30:01.215Z,5.60
2023-05-14T17:32:29.557Z,4.40
2023-05-14T17:34:57.426Z,4.80
2023-05-14T17:37:26.339Z,5.40
2023-05-14T17:39:54.420Z,4.70
2023-05-14T17:42:22.406Z,4.40
2023-05-14T17:44:50.353Z,4.50
2023-05-14T17:47:20.466Z,4.40
2023-05-14T17:49:48.118Z,4.20
2023-05-14T17:52:15.755Z,4.40
2023-05-14T17:54:43.628Z,5.50
2023-05-14T17:57:11.284Z,5.80
2023-05-14T17:59:38.900Z,5.60
2023-05-14T18:02:07.624Z,6.20
2023-05-14T18:04:35.614Z,5.80
2023-05-14T18:07:03.318Z,5.00
2023-05-14T18:09:30.897Z,4.60
2023-05-14T18:11:58.530Z,6.00
2023-05-14T18:14:26.311Z,5.20
2023-05-14T18:16:53.907Z,4.80
2023-05-14T18:19:22.000Z,8.40
2023-05-14T18:21:49.873Z,6.20
2023-05-14T18:24:17.512Z,7.10
2023-05-14T18:26:45.077Z,4.90
2023-05-14T18:29:12.747Z,5.00
2023-05-14T18:31:40.408Z,5.40
2023-05-14T18:34:08.295Z,5.50
2023-05-14T18:36:35.895Z,5.50
2023-05-14T18:39:03.672Z,5.40
2023-05-14T18:41:31.263Z,5.40
2023-05-14T18:43:58.894Z,5.50
2023-05-14T18:46:26.778Z,5.10
2023-05-14T18:48:56.099Z,5.50
2023-05-14T18:51:23.788Z,5.50
2023-05-14T18:53:51.377Z,6.60
2023-05-14T18:56:19.075Z,7.20
2023-05-14T18:58:46.675Z,11.00
2023-05-14T19:01:14.324Z,12.20
2023-05-14T19:03:42.438Z,10.10
2023-05-14T19:06:10.183Z,9.50
2023-05-14T19:08:38.192Z,6.80
2023-05-14T19:11:05.907Z,6.50
2023-05-14T19:13:33.537Z,9.80
2023-05-14T19:16:01.168Z,7.00
2023-05-14T19:18:28.853Z,6.50
2023-05-14T19:20:57.152Z,9.20
2023-05-14T19:23:24.821Z,7.20
2023-05-14T19:25:52.889Z,7.30
2023-05-14T19:28:21.284Z,9.90
2023-05-14T19:30:51.091Z,7.10
2023-05-14T19:33:18.849Z,6.60
2023-05-14T19:35:47.381Z,6.30
2023-05-14T19:38:15.112Z,7.10
2023-05-14T19:40:43.752Z,6.80
2023-05-14T19:43:12.728Z,6.90
2023-05-14T19:45:42.674Z,7.40
2023-05-14T19:48:12.420Z,7.20
2023-05-14T19:50:41.511Z,7.00
2023-05-14T19:53:09.080Z,7.00
2023-05-14T19:55:36.904Z,7.70
2023-05-14T19:58:04.528Z,8.40
2023-05-14T20:00:32.105Z,7.70
2023-05-14T20:03:00.400Z,8.20
2023-05-14T20:05:28.319Z,8.60
2023-05-14T20:07:55.892Z,8.20
2023-05-14T20:10:24.364Z,8.10
2023-05-14T20:12:52.192Z,8.40
2023-05-14T20:15:19.849Z,8.40
2023-05-14T20:17:47.538Z,8.10
2023-05-14T20:20:16.705Z,8.80
2023-05-14T20:22:44.738Z,8.60
2023-05-14T20:25:12.381Z,9.50
2023-05-14T20:27:41.249Z,8.00
2023-05-14T20:30:09.137Z,8.10
2023-05-14T20:32:36.919Z,8.30
2023-05-14T20:35:05.069Z,8.60
2023-05-14T20:37:33.065Z,7.70
2023-05-14T20:40:02.306Z,7.90
2023-05-14T20:42:29.997Z,7.70
2023-05-14T20:44:57.702Z,7.60
2023-05-14T20:47:26.690Z,7.70
2023-05-14T20:49:54.467Z,7.80
2023-05-14T20:52:22.273Z,7.70
2023-05-14T20:54:49.948Z,8.00
2023-05-14T20:57:18.797Z,7.80
2023-05-14T20:59:47.517Z,8.70
2023-05-14T21:02:15.332Z,8.00
2023-05-14T21:04:43.682Z,7.10
2023-05-14T21:07:11.413Z,7.40
2023-05-14T21:09:39.218Z,7.70
2023-05-14T21:12:07.247Z,6.80
2023-05-14T21:14:34.867Z,7.00
2023-05-14T21:17:02.524Z,7.10
2023-05-14T21:19:30.096Z,7.10
2023-05-14T21:21:57.684Z,7.60
2023-05-14T21:24:25.320Z,7.00
2023-05-14T21:26:53.651Z,7.30
2023-05-14T21:29:21.431Z,6.90
2023-05-14T21:31:49.219Z,7.00
2023-05-14T21:34:16.915Z,6.90
2023-05-14T21:36:44.513Z,7.10
2023-05-14T21:39:12.130Z,7.10
2023-05-14T21:41:39.740Z,7.40
2023-05-14T21:44:07.387Z,11.70
2023-05-14T21:46:34.967Z,15.90
2023-05-14T21:49:03.139Z,13.80
2023-05-14T21:51:32.122Z,12.50
2023-05-14T21:53:59.738Z,10.30
2023-05-14T21:56:27.512Z,9.40
2023-05-14T21:58:56.030Z,7.60
2023-05-14T22:01:23.843Z,6.90
2023-05-14T22:03:51.621Z,6.00
2023-05-14T22:06:19.243Z,5.70
2023-05-14T22:08:46.800Z,6.20
2023-05-14T22:11:14.408Z,5.50
2023-05-14T22:13:42.042Z,5.40
2023-05-14T22:16:13.319Z,4.70
2023-05-14T22:18:41.629Z,5.10
2023-05-14T22:21:09.317Z,5.10
2023-05-14T22:23:37.558Z,5.10
2023-05-14T22:26:05.255Z,5.10
2023-05-14T22:28:32.841Z,7.30
2023-05-14T22:31:00.891Z,5.30
2023-05-14T22:33:28.617Z,5.30
2023-05-14T22:35:56.204Z,5.10
2023-05-14T22:38:23.790Z,6.80
2023-05-14T22:40:51.371Z,5.10
2023-05-14T22:43:18.953Z,6.10
2023-05-14T22:45:46.579Z,4.90
2023-05-14T22:48:14.149Z,5.20
2023-05-14T22:50:41.778Z,6.00
2023-05-14T22:53:09.436Z,5.70
2023-05-14T22:55:37.034Z,5.30
2023-05-14T22:58:04.603Z,5.70
2023-05-14T23:00:32.276Z,5.50
2023-05-14T23:02:59.883Z,5.70
2023-05-14T23:05:27.540Z,5.60
2023-05-14T23:07:55.485Z,5.80
2023-05-14T23:10:23.081Z,5.70
2023-05-14T23:12:50.666Z,5.70
2023-05-14T23:15:18.261Z,6.40
2023-05-14T23:17:46.055Z,5.30
2023-05-14T23:20:13.751Z,4.90
2023-05-14T23:22:41.382Z,5.40
2023-05-14T23:25:09.423Z,6.70
2023-05-14T23:27:37.064Z,5.60
2023-05-14T23:30:05.334Z,5.40
2023-05-14T23:32:32.952Z,6.50
2023-05-14T23:35:00.582Z,5.50
2023-05-14T23:37:28.204Z,5.60
2023-05-14T23:39:55.819Z,6.30
2023-05-14T23:42:24.773Z,5.10
2023-05-14T23:44:52.440Z,6.00
2023-05-14T23:47:20.017Z,5.00
2023-05-14T23:49:47.621Z,6.80
2023-05-14T23:52:15.311Z,5.50
2023-05-14T23:54:42.884Z,5.00
2023-05-14T23:57:12.973Z,5.00
2023-05-14T23:59:41.827Z,6.00
